Terminal Aerodrome Forecast
Issued by NWS

Home | Current Version | Previous Version | Graphics & Text | Print | Product List | Glossary On
Versions: 1 2 3 4 5 6 7 8 9 10 11 12 13 14 15 16
000
FTUS43 KMPX 190545
TAFRNH
TAF
KRNH 190545Z 1906/2006 13004KT P6SM SCT020 BKN040
     FM190800 13006KT P6SM OVC015
     FM191000 13006KT P6SM OVC008
     FM191600 14009KT P6SM BKN015
     FM191900 14011G17KT P6SM SCT025 BKN050
     FM200400 14015G22KT P6SM SCT030 BKN120 WS018/16050KT=

USA.gov is the U.S. government's official web portal to all federal, state and local government web resources and services.